Brooklawn, New Jersey
Current Conditions -  °F | °C
As of 2:54 PM on Friday 19 Dec 2014 (Local Time) from KPHL Reporting Station
Few Clouds Few Clouds  
Wind Chill: 35°   Ceiling: Unl
Heat Index: 42°   Visibility: 10mi
Dew Point: 22°   Wind: 15mph
Humidity: 45%   Direction: 330°NNW
Pressure: 30.09"   Gusts: NA
Location:  39.8885°N, 75.1173°W
Report Text: KPHL 191954Z 33013KT 10SM FEW040 06/M06 A3009 RMK AO2 SLP187 T00561056
Loading
Personal Weather Stations






























Interactive Weather Map New forecast layout! Learn more

10-Day Weather Forecast

Advertisements
Track Severe Weather on mobile